sensor_id;sensor_type;location;lat;lon;timestamp;temperature;humidity
3198;DHT22;1611;49.394;11.136;2023-08-07T00:00:26;13.50;75.50
3198;DHT22;1611;49.394;11.136;2023-08-07T00:02:53;13.50;75.50
3198;DHT22;1611;49.394;11.136;2023-08-07T00:05:19;13.50;75.00
3198;DHT22;1611;49.394;11.136;2023-08-07T00:07:47;13.50;75.50
3198;DHT22;1611;49.394;11.136;2023-08-07T00:10:14;13.50;75.70
3198;DHT22;1611;49.394;11.136;2023-08-07T00:12:41;13.40;76.00
3198;DHT22;1611;49.394;11.136;2023-08-07T00:15:09;13.40;76.10
3198;DHT22;1611;49.394;11.136;2023-08-07T00:17:36;13.40;76.00
3198;DHT22;1611;49.394;11.136;2023-08-07T00:20:03;13.50;76.40
3198;DHT22;1611;49.394;11.136;2023-08-07T00:22:30;13.40;75.50
3198;DHT22;1611;49.394;11.136;2023-08-07T00:24:58;13.40;76.10
3198;DHT22;1611;49.394;11.136;2023-08-07T00:27:25;13.50;76.30
3198;DHT22;1611;49.394;11.136;2023-08-07T00:29:52;13.40;75.30
3198;DHT22;1611;49.394;11.136;2023-08-07T00:32:19;13.30;76.00
3198;DHT22;1611;49.394;11.136;2023-08-07T00:34:45;13.30;76.10
3198;DHT22;1611;49.394;11.136;2023-08-07T00:37:12;13.20;76.30
3198;DHT22;1611;49.394;11.136;2023-08-07T00:39:39;13.20;77.10
3198;DHT22;1611;49.394;11.136;2023-08-07T00:42:07;13.20;77.70
3198;DHT22;1611;49.394;11.136;2023-08-07T00:44:34;13.30;77.60
3198;DHT22;1611;49.394;11.136;2023-08-07T00:47:02;13.30;77.30
3198;DHT22;1611;49.394;11.136;2023-08-07T00:49:29;13.20;77.20
3198;DHT22;1611;49.394;11.136;2023-08-07T00:51:55;13.10;75.90
3198;DHT22;1611;49.394;11.136;2023-08-07T00:54:22;13.10;76.70
3198;DHT22;1611;49.394;11.136;2023-08-07T00:56:49;13.10;77.60
3198;DHT22;1611;49.394;11.136;2023-08-07T00:59:18;13.10;77.50
3198;DHT22;1611;49.394;11.136;2023-08-07T01:01:45;13.00;77.20
3198;DHT22;1611;49.394;11.136;2023-08-07T01:04:12;13.10;78.50
3198;DHT22;1611;49.394;11.136;2023-08-07T01:06:39;13.10;77.80
3198;DHT22;1611;49.394;11.136;2023-08-07T01:09:05;13.10;77.20
3198;DHT22;1611;49.394;11.136;2023-08-07T01:11:36;13.10;77.30
3198;DHT22;1611;49.394;11.136;2023-08-07T01:14:08;13.10;77.30
3198;DHT22;1611;49.394;11.136;2023-08-07T01:16:44;13.10;77.20
3198;DHT22;1611;49.394;11.136;2023-08-07T01:19:19;13.00;76.90
3198;DHT22;1611;49.394;11.136;2023-08-07T01:21:57;13.00;77.70
3198;DHT22;1611;49.394;11.136;2023-08-07T01:24:30;12.90;76.90
3198;DHT22;1611;49.394;11.136;2023-08-07T01:26:58;12.80;77.60
3198;DHT22;1611;49.394;11.136;2023-08-07T01:29:30;12.80;78.30
3198;DHT22;1611;49.394;11.136;2023-08-07T01:32:00;12.80;78.80
3198;DHT22;1611;49.394;11.136;2023-08-07T01:34:28;12.80;78.90
3198;DHT22;1611;49.394;11.136;2023-08-07T01:36:58;12.80;78.90
3198;DHT22;1611;49.394;11.136;2023-08-07T01:39:26;12.80;78.90
3198;DHT22;1611;49.394;11.136;2023-08-07T01:41:53;12.80;78.80
3198;DHT22;1611;49.394;11.136;2023-08-07T01:44:21;12.80;78.80
3198;DHT22;1611;49.394;11.136;2023-08-07T01:46:48;12.90;78.80
3198;DHT22;1611;49.394;11.136;2023-08-07T01:49:14;12.90;78.50
3198;DHT22;1611;49.394;11.136;2023-08-07T01:51:41;12.80;77.90
3198;DHT22;1611;49.394;11.136;2023-08-07T01:54:09;12.90;78.90
3198;DHT22;1611;49.394;11.136;2023-08-07T01:56:36;12.80;77.80
3198;DHT22;1611;49.394;11.136;2023-08-07T01:59:03;12.80;78.40
3198;DHT22;1611;49.394;11.136;2023-08-07T02:01:29;12.80;78.80
3198;DHT22;1611;49.394;11.136;2023-08-07T02:03:56;12.80;78.60
3198;DHT22;1611;49.394;11.136;2023-08-07T02:06:23;12.80;77.90
3198;DHT22;1611;49.394;11.136;2023-08-07T02:08:49;12.90;78.50
3198;DHT22;1611;49.394;11.136;2023-08-07T02:11:17;12.90;78.60
3198;DHT22;1611;49.394;11.136;2023-08-07T02:13:44;12.90;78.60
3198;DHT22;1611;49.394;11.136;2023-08-07T02:16:11;12.80;77.70
3198;DHT22;1611;49.394;11.136;2023-08-07T02:18:38;12.80;78.50
3198;DHT22;1611;49.394;11.136;2023-08-07T02:21:04;12.90;78.70
3198;DHT22;1611;49.394;11.136;2023-08-07T02:23:31;12.80;78.40
3198;DHT22;1611;49.394;11.136;2023-08-07T02:25:58;12.80;78.40
3198;DHT22;1611;49.394;11.136;2023-08-07T02:28:26;12.80;78.10
3198;DHT22;1611;49.394;11.136;2023-08-07T02:30:53;12.80;78.10
3198;DHT22;1611;49.394;11.136;2023-08-07T02:33:20;12.90;77.90
3198;DHT22;1611;49.394;11.136;2023-08-07T02:35:46;12.80;77.70
3198;DHT22;1611;49.394;11.136;2023-08-07T02:38:13;12.80;77.40
3198;DHT22;1611;49.394;11.136;2023-08-07T02:40:40;12.80;77.60
3198;DHT22;1611;49.394;11.136;2023-08-07T02:43:06;12.80;78.00
3198;DHT22;1611;49.394;11.136;2023-08-07T02:45:35;12.80;77.80
3198;DHT22;1611;49.394;11.136;2023-08-07T02:48:02;12.80;77.80
3198;DHT22;1611;49.394;11.136;2023-08-07T02:50:29;12.70;77.60
3198;DHT22;1611;49.394;11.136;2023-08-07T02:52:58;12.80;77.80
3198;DHT22;1611;49.394;11.136;2023-08-07T02:55:24;12.80;78.40
3198;DHT22;1611;49.394;11.136;2023-08-07T02:57:51;12.70;77.80
3198;DHT22;1611;49.394;11.136;2023-08-07T03:00:18;12.70;78.10
3198;DHT22;1611;49.394;11.136;2023-08-07T03:02:46;12.70;77.80
3198;DHT22;1611;49.394;11.136;2023-08-07T03:05:13;12.60;77.50
3198;DHT22;1611;49.394;11.136;2023-08-07T03:07:40;12.60;77.80
3198;DHT22;1611;49.394;11.136;2023-08-07T03:10:07;12.60;78.40
3198;DHT22;1611;49.394;11.136;2023-08-07T03:12:34;12.60;78.50
3198;DHT22;1611;49.394;11.136;2023-08-07T03:15:03;12.60;78.40
3198;DHT22;1611;49.394;11.136;2023-08-07T03:17:30;12.60;78.70
3198;DHT22;1611;49.394;11.136;2023-08-07T03:19:58;12.60;77.70
3198;DHT22;1611;49.394;11.136;2023-08-07T03:22:24;12.60;77.60
3198;DHT22;1611;49.394;11.136;2023-08-07T03:24:51;12.60;78.10
3198;DHT22;1611;49.394;11.136;2023-08-07T03:27:18;12.60;78.90
3198;DHT22;1611;49.394;11.136;2023-08-07T03:29:44;12.60;78.90
3198;DHT22;1611;49.394;11.136;2023-08-07T03:32:11;12.60;78.40
3198;DHT22;1611;49.394;11.136;2023-08-07T03:34:38;12.60;78.50
3198;DHT22;1611;49.394;11.136;2023-08-07T03:37:06;12.60;78.20
3198;DHT22;1611;49.394;11.136;2023-08-07T03:39:33;12.60;78.10
3198;DHT22;1611;49.394;11.136;2023-08-07T03:41:59;12.60;78.20
3198;DHT22;1611;49.394;11.136;2023-08-07T03:44:26;12.60;77.20
3198;DHT22;1611;49.394;11.136;2023-08-07T03:46:53;12.70;77.90
3198;DHT22;1611;49.394;11.136;2023-08-07T03:49:21;12.60;77.60
3198;DHT22;1611;49.394;11.136;2023-08-07T03:51:49;12.60;77.40
3198;DHT22;1611;49.394;11.136;2023-08-07T03:54:17;12.60;77.30
3198;DHT22;1611;49.394;11.136;2023-08-07T03:56:44;12.60;77.40
3198;DHT22;1611;49.394;11.136;2023-08-07T03:59:12;12.60;77.10
3198;DHT22;1611;49.394;11.136;2023-08-07T04:01:39;12.60;77.40
3198;DHT22;1611;49.394;11.136;2023-08-07T04:04:05;12.70;77.90
3198;DHT22;1611;49.394;11.136;2023-08-07T04:06:32;12.70;77.30
3198;DHT22;1611;49.394;11.136;2023-08-07T04:08:59;12.60;77.20
3198;DHT22;1611;49.394;11.136;2023-08-07T04:11:27;12.60;77.30
3198;DHT22;1611;49.394;11.136;2023-08-07T04:13:53;12.60;77.00
3198;DHT22;1611;49.394;11.136;2023-08-07T04:16:20;12.50;76.30
3198;DHT22;1611;49.394;11.136;2023-08-07T04:18:47;12.50;76.90
3198;DHT22;1611;49.394;11.136;2023-08-07T04:21:14;12.50;77.90
3198;DHT22;1611;49.394;11.136;2023-08-07T04:23:40;12.50;78.40
3198;DHT22;1611;49.394;11.136;2023-08-07T04:26:07;12.50;77.70
3198;DHT22;1611;49.394;11.136;2023-08-07T04:28:35;12.50;78.30
3198;DHT22;1611;49.394;11.136;2023-08-07T04:31:02;12.60;78.20
3198;DHT22;1611;49.394;11.136;2023-08-07T04:33:29;12.60;77.90
3198;DHT22;1611;49.394;11.136;2023-08-07T04:35:55;12.60;77.80
3198;DHT22;1611;49.394;11.136;2023-08-07T04:38:22;12.60;77.30
3198;DHT22;1611;49.394;11.136;2023-08-07T04:40:49;12.60;76.60
3198;DHT22;1611;49.394;11.136;2023-08-07T04:43:18;12.60;76.70
3198;DHT22;1611;49.394;11.136;2023-08-07T04:45:47;12.50;76.20
3198;DHT22;1611;49.394;11.136;2023-08-07T04:48:14;12.50;77.40
3198;DHT22;1611;49.394;11.136;2023-08-07T04:50:41;12.50;76.90
3198;DHT22;1611;49.394;11.136;2023-08-07T04:53:08;12.50;77.20
3198;DHT22;1611;49.394;11.136;2023-08-07T04:55:35;12.60;77.60
3198;DHT22;1611;49.394;11.136;2023-08-07T04:58:02;12.60;77.50
3198;DHT22;1611;49.394;11.136;2023-08-07T05:00:29;12.60;77.80
3198;DHT22;1611;49.394;11.136;2023-08-07T05:02:57;12.50;76.90
3198;DHT22;1611;49.394;11.136;2023-08-07T05:05:23;12.50;77.20
3198;DHT22;1611;49.394;11.136;2023-08-07T05:07:50;12.50;77.40
3198;DHT22;1611;49.394;11.136;2023-08-07T05:10:17;12.50;76.90
3198;DHT22;1611;49.394;11.136;2023-08-07T05:12:44;12.40;76.90
3198;DHT22;1611;49.394;11.136;2023-08-07T05:15:10;12.50;77.60
3198;DHT22;1611;49.394;11.136;2023-08-07T05:17:37;12.50;78.00
3198;DHT22;1611;49.394;11.136;2023-08-07T05:20:07;12.50;76.90
3198;DHT22;1611;49.394;11.136;2023-08-07T05:22:34;12.50;77.40
3198;DHT22;1611;49.394;11.136;2023-08-07T05:25:01;12.50;77.40
3198;DHT22;1611;49.394;11.136;2023-08-07T05:27:28;12.60;77.30
3198;DHT22;1611;49.394;11.136;2023-08-07T05:29:55;12.50;76.70
3198;DHT22;1611;49.394;11.136;2023-08-07T05:32:21;12.60;76.40
3198;DHT22;1611;49.394;11.136;2023-08-07T05:34:48;12.60;76.40
3198;DHT22;1611;49.394;11.136;2023-08-07T05:37:17;12.60;76.50
3198;DHT22;1611;49.394;11.136;2023-08-07T05:39:44;12.60;76.00
3198;DHT22;1611;49.394;11.136;2023-08-07T05:42:11;12.70;76.80
3198;DHT22;1611;49.394;11.136;2023-08-07T05:44:37;12.70;75.40
3198;DHT22;1611;49.394;11.136;2023-08-07T05:47:05;12.70;76.50
3198;DHT22;1611;49.394;11.136;2023-08-07T05:49:32;12.70;75.60
3198;DHT22;1611;49.394;11.136;2023-08-07T05:51:58;12.80;75.70
3198;DHT22;1611;49.394;11.136;2023-08-07T05:54:26;12.70;75.30
3198;DHT22;1611;49.394;11.136;2023-08-07T05:56:53;12.70;75.70
3198;DHT22;1611;49.394;11.136;2023-08-07T05:59:20;12.70;75.70
3198;DHT22;1611;49.394;11.136;2023-08-07T06:01:46;12.70;75.10
3198;DHT22;1611;49.394;11.136;2023-08-07T06:04:13;12.70;75.60
3198;DHT22;1611;49.394;11.136;2023-08-07T06:06:40;12.80;75.50
3198;DHT22;1611;49.394;11.136;2023-08-07T06:09:09;12.80;75.80
3198;DHT22;1611;49.394;11.136;2023-08-07T06:11:37;12.70;75.00
3198;DHT22;1611;49.394;11.136;2023-08-07T06:14:04;12.80;75.10
3198;DHT22;1611;49.394;11.136;2023-08-07T06:16:31;12.60;75.00
3198;DHT22;1611;49.394;11.136;2023-08-07T06:18:58;12.70;75.10
3198;DHT22;1611;49.394;11.136;2023-08-07T06:21:25;12.70;75.50
3198;DHT22;1611;49.394;11.136;2023-08-07T06:23:54;12.70;75.10
3198;DHT22;1611;49.394;11.136;2023-08-07T06:26:20;12.70;75.30
3198;DHT22;1611;49.394;11.136;2023-08-07T06:28:48;12.70;74.00
3198;DHT22;1611;49.394;11.136;2023-08-07T06:31:16;12.80;74.90
3198;DHT22;1611;49.394;11.136;2023-08-07T06:33:43;12.80;75.30
3198;DHT22;1611;49.394;11.136;2023-08-07T06:36:09;12.80;75.40
3198;DHT22;1611;49.394;11.136;2023-08-07T06:38:36;12.80;74.30
3198;DHT22;1611;49.394;11.136;2023-08-07T06:41:04;12.80;74.70
3198;DHT22;1611;49.394;11.136;2023-08-07T06:43:30;12.70;74.20
3198;DHT22;1611;49.394;11.136;2023-08-07T06:45:59;12.80;75.30
3198;DHT22;1611;49.394;11.136;2023-08-07T06:48:25;12.80;74.60
3198;DHT22;1611;49.394;11.136;2023-08-07T06:50:52;12.80;74.60
3198;DHT22;1611;49.394;11.136;2023-08-07T06:53:19;12.80;75.00
3198;DHT22;1611;49.394;11.136;2023-08-07T06:55:46;12.90;75.60
3198;DHT22;1611;49.394;11.136;2023-08-07T06:58:13;12.90;75.20
3198;DHT22;1611;49.394;11.136;2023-08-07T07:00:40;12.80;74.10
3198;DHT22;1611;49.394;11.136;2023-08-07T07:03:08;12.80;74.10
3198;DHT22;1611;49.394;11.136;2023-08-07T07:05:35;12.80;75.20
3198;DHT22;1611;49.394;11.136;2023-08-07T07:08:02;12.80;74.80
3198;DHT22;1611;49.394;11.136;2023-08-07T07:10:29;12.80;75.40
3198;DHT22;1611;49.394;11.136;2023-08-07T07:12:56;12.70;74.80
3198;DHT22;1611;49.394;11.136;2023-08-07T07:15:22;12.80;75.30
3198;DHT22;1611;49.394;11.136;2023-08-07T07:17:49;12.80;75.10
3198;DHT22;1611;49.394;11.136;2023-08-07T07:20:17;12.80;74.10
3198;DHT22;1611;49.394;11.136;2023-08-07T07:22:44;12.70;74.20
3198;DHT22;1611;49.394;11.136;2023-08-07T07:25:11;12.80;75.60
3198;DHT22;1611;49.394;11.136;2023-08-07T07:27:39;12.80;75.80
3198;DHT22;1611;49.394;11.136;2023-08-07T07:30:07;12.90;74.20
3198;DHT22;1611;49.394;11.136;2023-08-07T07:32:34;12.90;73.80
3198;DHT22;1611;49.394;11.136;2023-08-07T07:35:01;12.90;74.00
3198;DHT22;1611;49.394;11.136;2023-08-07T07:37:31;13.00;73.90
3198;DHT22;1611;49.394;11.136;2023-08-07T07:39:58;13.00;74.50
3198;DHT22;1611;49.394;11.136;2023-08-07T07:42:25;13.10;74.30
3198;DHT22;1611;49.394;11.136;2023-08-07T07:44:51;13.20;74.10
3198;DHT22;1611;49.394;11.136;2023-08-07T07:47:18;13.20;72.90
3198;DHT22;1611;49.394;11.136;2023-08-07T07:49:47;13.20;73.30
3198;DHT22;1611;49.394;11.136;2023-08-07T07:52:14;13.30;72.90
3198;DHT22;1611;49.394;11.136;2023-08-07T07:54:42;13.40;72.60
3198;DHT22;1611;49.394;11.136;2023-08-07T07:57:08;13.40;73.10
3198;DHT22;1611;49.394;11.136;2023-08-07T07:59:36;13.40;72.50
3198;DHT22;1611;49.394;11.136;2023-08-07T08:02:02;13.40;72.40
3198;DHT22;1611;49.394;11.136;2023-08-07T08:04:29;13.50;71.60
3198;DHT22;1611;49.394;11.136;2023-08-07T08:06:56;13.50;70.60
3198;DHT22;1611;49.394;11.136;2023-08-07T08:09:23;13.40;70.70
3198;DHT22;1611;49.394;11.136;2023-08-07T08:11:51;13.40;71.30
3198;DHT22;1611;49.394;11.136;2023-08-07T08:14:17;13.40;71.90
3198;DHT22;1611;49.394;11.136;2023-08-07T08:16:44;13.40;72.10
3198;DHT22;1611;49.394;11.136;2023-08-07T08:19:11;13.40;71.30
3198;DHT22;1611;49.394;11.136;2023-08-07T08:21:37;13.40;71.40
3198;DHT22;1611;49.394;11.136;2023-08-07T08:24:04;13.40;72.50
3198;DHT22;1611;49.394;11.136;2023-08-07T08:26:31;13.40;72.50
3198;DHT22;1611;49.394;11.136;2023-08-07T08:28:59;13.30;73.00
3198;DHT22;1611;49.394;11.136;2023-08-07T08:31:26;13.30;72.10
3198;DHT22;1611;49.394;11.136;2023-08-07T08:33:53;13.40;72.30
3198;DHT22;1611;49.394;11.136;2023-08-07T08:36:20;13.30;71.10
3198;DHT22;1611;49.394;11.136;2023-08-07T08:38:47;13.30;73.10
3198;DHT22;1611;49.394;11.136;2023-08-07T08:41:14;13.30;73.50
3198;DHT22;1611;49.394;11.136;2023-08-07T08:43:43;13.40;73.50
3198;DHT22;1611;49.394;11.136;2023-08-07T08:46:14;13.30;72.70
3198;DHT22;1611;49.394;11.136;2023-08-07T08:48:45;13.40;72.10
3198;DHT22;1611;49.394;11.136;2023-08-07T08:51:13;13.30;73.10
3198;DHT22;1611;49.394;11.136;2023-08-07T08:53:40;13.20;72.90
3198;DHT22;1611;49.394;11.136;2023-08-07T08:56:07;13.30;72.80
3198;DHT22;1611;49.394;11.136;2023-08-07T08:58:34;13.30;72.30
3198;DHT22;1611;49.394;11.136;2023-08-07T09:01:01;13.40;72.10
3198;DHT22;1611;49.394;11.136;2023-08-07T09:03:30;13.40;72.50
3198;DHT22;1611;49.394;11.136;2023-08-07T09:05:58;13.40;72.50
3198;DHT22;1611;49.394;11.136;2023-08-07T09:08:27;13.50;72.80
3198;DHT22;1611;49.394;11.136;2023-08-07T09:10:56;13.40;71.50
3198;DHT22;1611;49.394;11.136;2023-08-07T09:13:23;13.40;71.90
3198;DHT22;1611;49.394;11.136;2023-08-07T09:15:51;13.40;71.60
3198;DHT22;1611;49.394;11.136;2023-08-07T09:18:18;13.40;71.10
3198;DHT22;1611;49.394;11.136;2023-08-07T09:20:47;13.50;72.00
3198;DHT22;1611;49.394;11.136;2023-08-07T09:23:15;13.50;72.20
3198;DHT22;1611;49.394;11.136;2023-08-07T09:25:43;13.50;71.10
3198;DHT22;1611;49.394;11.136;2023-08-07T09:28:10;13.50;71.50
3198;DHT22;1611;49.394;11.136;2023-08-07T09:30:37;13.50;72.30
3198;DHT22;1611;49.394;11.136;2023-08-07T09:33:04;13.50;71.90
3198;DHT22;1611;49.394;11.136;2023-08-07T09:35:32;13.50;70.80
3198;DHT22;1611;49.394;11.136;2023-08-07T09:38:01;13.50;70.80
3198;DHT22;1611;49.394;11.136;2023-08-07T09:40:29;13.40;70.00
3198;DHT22;1611;49.394;11.136;2023-08-07T09:42:56;13.50;71.70
3198;DHT22;1611;49.394;11.136;2023-08-07T09:45:23;13.70;72.20
3198;DHT22;1611;49.394;11.136;2023-08-07T09:47:57;13.70;70.30
3198;DHT22;1611;49.394;11.136;2023-08-07T09:50:24;13.70;69.70
3198;DHT22;1611;49.394;11.136;2023-08-07T09:52:52;13.70;69.10
3198;DHT22;1611;49.394;11.136;2023-08-07T09:55:20;13.70;69.60
3198;DHT22;1611;49.394;11.136;2023-08-07T09:57:48;13.80;70.20
3198;DHT22;1611;49.394;11.136;2023-08-07T10:00:16;13.70;68.90
3198;DHT22;1611;49.394;11.136;2023-08-07T10:02:46;13.70;69.90
3198;DHT22;1611;49.394;11.136;2023-08-07T10:05:14;13.60;69.00
3198;DHT22;1611;49.394;11.136;2023-08-07T10:07:41;13.70;70.50
3198;DHT22;1611;49.394;11.136;2023-08-07T10:10:09;13.70;70.30
3198;DHT22;1611;49.394;11.136;2023-08-07T10:12:38;13.80;69.10
3198;DHT22;1611;49.394;11.136;2023-08-07T10:15:06;13.90;70.60
3198;DHT22;1611;49.394;11.136;2023-08-07T10:17:33;13.90;70.70
3198;DHT22;1611;49.394;11.136;2023-08-07T10:20:00;14.00;69.90
3198;DHT22;1611;49.394;11.136;2023-08-07T10:22:29;14.00;68.50
3198;DHT22;1611;49.394;11.136;2023-08-07T10:24:57;14.00;68.60
3198;DHT22;1611;49.394;11.136;2023-08-07T10:27:25;14.00;69.50
3198;DHT22;1611;49.394;11.136;2023-08-07T10:29:55;14.10;68.90
3198;DHT22;1611;49.394;11.136;2023-08-07T10:32:24;14.00;68.60
3198;DHT22;1611;49.394;11.136;2023-08-07T10:34:52;14.10;70.00
3198;DHT22;1611;49.394;11.136;2023-08-07T10:37:41;14.00;70.00
3198;DHT22;1611;49.394;11.136;2023-08-07T10:40:09;14.00;69.50
3198;DHT22;1611;49.394;11.136;2023-08-07T10:42:55;14.10;70.50
3198;DHT22;1611;49.394;11.136;2023-08-07T10:45:24;14.10;68.90
3198;DHT22;1611;49.394;11.136;2023-08-07T10:48:05;14.00;67.00
3198;DHT22;1611;49.394;11.136;2023-08-07T10:50:33;13.90;68.30
3198;DHT22;1611;49.394;11.136;2023-08-07T10:53:00;13.90;69.10
3198;DHT22;1611;49.394;11.136;2023-08-07T10:55:31;14.00;70.00
3198;DHT22;1611;49.394;11.136;2023-08-07T10:58:21;14.10;69.30
3198;DHT22;1611;49.394;11.136;2023-08-07T11:00:51;14.00;67.90
3198;DHT22;1611;49.394;11.136;2023-08-07T11:03:26;14.00;68.90
3198;DHT22;1611;49.394;11.136;2023-08-07T11:05:54;14.00;67.30
3198;DHT22;1611;49.394;11.136;2023-08-07T11:08:23;14.00;68.20
3198;DHT22;1611;49.394;11.136;2023-08-07T11:10:51;14.00;69.90
3198;DHT22;1611;49.394;11.136;2023-08-07T11:13:18;14.00;68.00
3198;DHT22;1611;49.394;11.136;2023-08-07T11:15:45;13.90;66.60
3198;DHT22;1611;49.394;11.136;2023-08-07T11:18:14;14.00;68.10
3198;DHT22;1611;49.394;11.136;2023-08-07T11:20:42;14.10;68.00
3198;DHT22;1611;49.394;11.136;2023-08-07T11:23:09;14.20;66.20
3198;DHT22;1611;49.394;11.136;2023-08-07T11:25:37;14.20;63.80
3198;DHT22;1611;49.394;11.136;2023-08-07T11:28:03;14.30;66.80
3198;DHT22;1611;49.394;11.136;2023-08-07T11:30:30;14.40;65.90
3198;DHT22;1611;49.394;11.136;2023-08-07T11:32:57;14.40;65.80
3198;DHT22;1611;49.394;11.136;2023-08-07T11:35:25;14.40;63.40
3198;DHT22;1611;49.394;11.136;2023-08-07T11:37:52;14.40;63.80
3198;DHT22;1611;49.394;11.136;2023-08-07T11:40:20;14.40;63.00
3198;DHT22;1611;49.394;11.136;2023-08-07T11:42:46;14.50;65.00
3198;DHT22;1611;49.394;11.136;2023-08-07T11:45:13;14.40;63.90
3198;DHT22;1611;49.394;11.136;2023-08-07T11:47:41;14.40;64.00
3198;DHT22;1611;49.394;11.136;2023-08-07T11:50:09;14.50;63.60
3198;DHT22;1611;49.394;11.136;2023-08-07T11:52:38;14.50;65.00
3198;DHT22;1611;49.394;11.136;2023-08-07T11:55:06;14.70;64.30
3198;DHT22;1611;49.394;11.136;2023-08-07T11:57:37;14.70;63.50
3198;DHT22;1611;49.394;11.136;2023-08-07T12:00:06;14.70;61.40
3198;DHT22;1611;49.394;11.136;2023-08-07T12:02:41;14.70;62.60
3198;DHT22;1611;49.394;11.136;2023-08-07T12:05:08;14.70;60.80
3198;DHT22;1611;49.394;11.136;2023-08-07T12:07:37;14.50;61.10
3198;DHT22;1611;49.394;11.136;2023-08-07T12:10:06;14.60;60.20
3198;DHT22;1611;49.394;11.136;2023-08-07T12:12:34;14.60;62.50
3198;DHT22;1611;49.394;11.136;2023-08-07T12:15:02;14.70;62.60
3198;DHT22;1611;49.394;11.136;2023-08-07T12:17:31;14.70;60.50
3198;DHT22;1611;49.394;11.136;2023-08-07T12:19:58;14.70;60.40
3198;DHT22;1611;49.394;11.136;2023-08-07T12:22:27;14.80;59.80
3198;DHT22;1611;49.394;11.136;2023-08-07T12:24:56;14.80;61.40
3198;DHT22;1611;49.394;11.136;2023-08-07T12:27:22;14.80;60.90
3198;DHT22;1611;49.394;11.136;2023-08-07T12:29:49;14.90;61.00
3198;DHT22;1611;49.394;11.136;2023-08-07T12:32:16;14.80;61.80
3198;DHT22;1611;49.394;11.136;2023-08-07T12:34:43;15.00;60.60
3198;DHT22;1611;49.394;11.136;2023-08-07T12:37:09;14.90;59.60
3198;DHT22;1611;49.394;11.136;2023-08-07T12:39:36;15.00;60.90
3198;DHT22;1611;49.394;11.136;2023-08-07T12:42:04;14.90;59.90
3198;DHT22;1611;49.394;11.136;2023-08-07T12:44:31;14.80;61.20
3198;DHT22;1611;49.394;11.136;2023-08-07T12:46:58;14.90;62.50
3198;DHT22;1611;49.394;11.136;2023-08-07T12:49:25;14.80;62.40
3198;DHT22;1611;49.394;11.136;2023-08-07T12:51:51;14.80;62.10
3198;DHT22;1611;49.394;11.136;2023-08-07T12:54:19;14.80;62.30
3198;DHT22;1611;49.394;11.136;2023-08-07T12:56:45;14.80;62.60
3198;DHT22;1611;49.394;11.136;2023-08-07T12:59:13;14.90;63.10
3198;DHT22;1611;49.394;11.136;2023-08-07T13:01:40;14.80;63.80
3198;DHT22;1611;49.394;11.136;2023-08-07T13:04:07;14.70;63.70
3198;DHT22;1611;49.394;11.136;2023-08-07T13:06:34;14.80;64.50
3198;DHT22;1611;49.394;11.136;2023-08-07T13:09:00;14.80;64.70
3198;DHT22;1611;49.394;11.136;2023-08-07T13:11:27;14.60;64.90
3198;DHT22;1611;49.394;11.136;2023-08-07T13:13:54;14.70;65.20
3198;DHT22;1611;49.394;11.136;2023-08-07T13:16:22;14.60;64.70
3198;DHT22;1611;49.394;11.136;2023-08-07T13:18:49;14.60;65.80
3198;DHT22;1611;49.394;11.136;2023-08-07T13:21:15;14.60;66.00
3198;DHT22;1611;49.394;11.136;2023-08-07T13:23:42;14.60;66.20
3198;DHT22;1611;49.394;11.136;2023-08-07T13:26:09;14.70;65.80
3198;DHT22;1611;49.394;11.136;2023-08-07T13:28:35;14.70;66.30
3198;DHT22;1611;49.394;11.136;2023-08-07T13:31:02;14.40;65.00
3198;DHT22;1611;49.394;11.136;2023-08-07T13:33:30;14.40;67.10
3198;DHT22;1611;49.394;11.136;2023-08-07T13:35:57;14.30;66.60
3198;DHT22;1611;49.394;11.136;2023-08-07T13:38:23;14.30;66.70
3198;DHT22;1611;49.394;11.136;2023-08-07T13:40:50;14.20;67.20
3198;DHT22;1611;49.394;11.136;2023-08-07T13:43:17;14.10;68.40
3198;DHT22;1611;49.394;11.136;2023-08-07T13:45:44;14.20;68.60
3198;DHT22;1611;49.394;11.136;2023-08-07T13:48:11;14.30;68.90
3198;DHT22;1611;49.394;11.136;2023-08-07T13:50:39;14.20;67.50
3198;DHT22;1611;49.394;11.136;2023-08-07T13:53:06;14.20;66.20
3198;DHT22;1611;49.394;11.136;2023-08-07T13:55:33;14.10;67.10
3198;DHT22;1611;49.394;11.136;2023-08-07T13:58:00;14.30;68.20
3198;DHT22;1611;49.394;11.136;2023-08-07T14:00:26;14.30;67.30
3198;DHT22;1611;49.394;11.136;2023-08-07T14:02:53;14.30;68.30
3198;DHT22;1611;49.394;11.136;2023-08-07T14:05:20;14.30;65.90
3198;DHT22;1611;49.394;11.136;2023-08-07T14:07:48;14.30;66.00
3198;DHT22;1611;49.394;11.136;2023-08-07T14:10:15;14.30;67.20
3198;DHT22;1611;49.394;11.136;2023-08-07T14:12:41;14.40;67.10
3198;DHT22;1611;49.394;11.136;2023-08-07T14:15:09;14.40;65.30
3198;DHT22;1611;49.394;11.136;2023-08-07T14:17:37;14.50;65.40
3198;DHT22;1611;49.394;11.136;2023-08-07T14:20:05;14.30;64.20
3198;DHT22;1611;49.394;11.136;2023-08-07T14:22:31;14.30;63.30
3198;DHT22;1611;49.394;11.136;2023-08-07T14:25:02;14.30;63.30
3198;DHT22;1611;49.394;11.136;2023-08-07T14:27:29;14.20;63.70
3198;DHT22;1611;49.394;11.136;2023-08-07T14:29:55;14.10;64.80
3198;DHT22;1611;49.394;11.136;2023-08-07T14:32:22;14.30;65.20
3198;DHT22;1611;49.394;11.136;2023-08-07T14:34:49;14.30;65.40
3198;DHT22;1611;49.394;11.136;2023-08-07T14:37:16;14.30;64.50
3198;DHT22;1611;49.394;11.136;2023-08-07T14:39:43;14.30;63.10
3198;DHT22;1611;49.394;11.136;2023-08-07T14:42:11;14.40;64.10
3198;DHT22;1611;49.394;11.136;2023-08-07T14:44:37;14.40;63.10
3198;DHT22;1611;49.394;11.136;2023-08-07T14:47:04;14.40;63.90
3198;DHT22;1611;49.394;11.136;2023-08-07T14:49:31;14.40;62.30
3198;DHT22;1611;49.394;11.136;2023-08-07T14:51:58;14.40;62.60
3198;DHT22;1611;49.394;11.136;2023-08-07T14:54:25;14.40;64.10
3198;DHT22;1611;49.394;11.136;2023-08-07T14:56:51;14.30;62.00
3198;DHT22;1611;49.394;11.136;2023-08-07T14:59:19;14.40;63.60
3198;DHT22;1611;49.394;11.136;2023-08-07T15:01:46;14.30;62.20
3198;DHT22;1611;49.394;11.136;2023-08-07T15:04:13;14.30;62.40
3198;DHT22;1611;49.394;11.136;2023-08-07T15:06:40;14.40;62.00
3198;DHT22;1611;49.394;11.136;2023-08-07T15:09:07;14.50;63.10
3198;DHT22;1611;49.394;11.136;2023-08-07T15:11:34;14.60;61.70
3198;DHT22;1611;49.394;11.136;2023-08-07T15:14:01;14.70;62.50
3198;DHT22;1611;49.394;11.136;2023-08-07T15:16:31;14.90;60.60
3198;DHT22;1611;49.394;11.136;2023-08-07T15:18:58;15.00;61.50
3198;DHT22;1611;49.394;11.136;2023-08-07T15:21:24;15.30;59.40
3198;DHT22;1611;49.394;11.136;2023-08-07T15:23:51;15.30;56.50
3198;DHT22;1611;49.394;11.136;2023-08-07T15:26:18;15.30;56.80
3198;DHT22;1611;49.394;11.136;2023-08-07T15:28:44;15.30;55.80
3198;DHT22;1611;49.394;11.136;2023-08-07T15:31:11;15.40;56.10
3198;DHT22;1611;49.394;11.136;2023-08-07T15:33:40;15.40;56.40
3198;DHT22;1611;49.394;11.136;2023-08-07T15:36:07;15.40;56.70
3198;DHT22;1611;49.394;11.136;2023-08-07T15:38:34;15.40;56.50
3198;DHT22;1611;49.394;11.136;2023-08-07T15:41:04;15.50;56.60
3198;DHT22;1611;49.394;11.136;2023-08-07T15:43:30;15.40;56.40
3198;DHT22;1611;49.394;11.136;2023-08-07T15:45:57;15.40;57.90